createdAt,value
2023-07-21T00:00:11.671Z,65.10
2023-07-21T00:02:39.516Z,73.10
2023-07-21T00:05:07.099Z,77.00
2023-07-21T00:07:36.560Z,76.40
2023-07-21T00:10:11.144Z,91.90
2023-07-21T00:12:50.150Z,95.50
2023-07-21T00:15:19.221Z,99.90
2023-07-21T00:17:49.749Z,99.90
2023-07-21T00:20:22.622Z,99.90
2023-07-21T00:22:49.851Z,99.90
2023-07-21T00:25:16.718Z,99.90
2023-07-21T00:27:45.477Z,99.90
2023-07-21T00:30:13.182Z,99.90
2023-07-21T00:32:41.401Z,99.90
2023-07-21T00:35:09.685Z,99.90
2023-07-21T00:37:37.903Z,99.90
2023-07-21T00:40:11.217Z,99.90
2023-07-21T00:42:38.335Z,99.90
2023-07-21T00:45:05.873Z,99.90
2023-07-21T00:47:36.440Z,99.90
2023-07-21T00:50:03.820Z,99.90
2023-07-21T00:52:30.788Z,99.90
2023-07-21T00:54:58.114Z,99.90
2023-07-21T00:57:25.539Z,99.90
2023-07-21T00:59:52.375Z,99.90
2023-07-21T01:02:19.625Z,99.90
2023-07-21T01:04:47.509Z,99.90
2023-07-21T01:07:16.228Z,99.90
2023-07-21T01:09:44.596Z,99.90
2023-07-21T01:12:12.547Z,1.00
2023-07-21T01:14:39.429Z,1.00
2023-07-21T01:17:09.784Z,1.00
2023-07-21T01:19:38.823Z,1.00
2023-07-21T01:22:23.862Z,1.00
2023-07-21T01:24:50.668Z,1.00
2023-07-21T01:27:23.056Z,1.00
2023-07-21T01:29:51.805Z,1.00
2023-07-21T01:32:22.306Z,1.00
2023-07-21T01:34:50.667Z,1.00
2023-07-21T01:37:19.136Z,1.00
2023-07-21T01:39:47.317Z,1.00
2023-07-21T01:42:14.752Z,1.00
2023-07-21T01:44:42.550Z,1.00
2023-07-21T01:47:09.809Z,1.00
2023-07-21T01:49:36.633Z,1.00
2023-07-21T01:52:04.794Z,1.00
2023-07-21T01:54:52.647Z,1.00
2023-07-21T01:57:27.566Z,1.00
2023-07-21T01:59:55.942Z,1.00
2023-07-21T02:02:22.998Z,1.00
2023-07-21T02:04:54.142Z,1.00
2023-07-21T02:07:21.947Z,1.00
2023-07-21T02:09:53.839Z,1.00
2023-07-21T02:12:22.556Z,1.00
2023-07-21T02:14:54.443Z,1.00
2023-07-21T02:17:21.637Z,1.00
2023-07-21T02:19:48.435Z,1.00
2023-07-21T02:22:15.260Z,1.00
2023-07-21T02:24:42.349Z,1.00
2023-07-21T02:27:09.140Z,1.00
2023-07-21T02:29:36.022Z,1.00
2023-07-21T02:32:02.928Z,1.00
2023-07-21T02:34:30.955Z,1.00
2023-07-21T02:36:57.734Z,1.00
2023-07-21T02:39:26.320Z,1.00
2023-07-21T02:41:53.047Z,1.00
2023-07-21T02:44:19.880Z,1.00
2023-07-21T02:46:47.251Z,1.00
2023-07-21T02:49:14.017Z,1.00
2023-07-21T02:51:40.782Z,1.00
2023-07-21T02:54:07.567Z,1.00
2023-07-21T02:56:35.538Z,1.00
2023-07-21T02:59:11.866Z,1.00
2023-07-21T03:01:40.026Z,1.00
2023-07-21T03:04:08.767Z,1.00
2023-07-21T03:06:49.772Z,1.00
2023-07-21T03:09:16.782Z,1.00
2023-07-21T03:11:44.129Z,1.00
2023-07-21T03:14:31.143Z,1.00
2023-07-21T03:16:57.862Z,1.00
2023-07-21T03:19:24.999Z,1.00
2023-07-21T03:21:51.859Z,1.00
2023-07-21T03:24:18.632Z,1.00
2023-07-21T03:26:46.056Z,1.00
2023-07-21T03:29:14.042Z,1.00
2023-07-21T03:31:45.743Z,1.00
2023-07-21T03:34:15.659Z,1.00
2023-07-21T03:36:42.493Z,1.00
2023-07-21T03:39:09.565Z,1.00
2023-07-21T03:41:36.383Z,1.00
2023-07-21T03:44:03.943Z,1.00
2023-07-21T03:46:31.092Z,1.00
2023-07-21T03:49:00.768Z,1.00
2023-07-21T03:51:28.672Z,1.00
2023-07-21T03:53:59.281Z,1.00
2023-07-21T03:56:26.743Z,1.00
2023-07-21T03:58:58.281Z,1.00
2023-07-21T04:01:28.329Z,1.00
2023-07-21T04:03:56.032Z,1.00
2023-07-21T04:06:24.539Z,1.00
2023-07-21T04:08:52.465Z,1.00
2023-07-21T04:11:19.893Z,1.00
2023-07-21T04:13:46.695Z,1.00
2023-07-21T04:16:13.512Z,1.00
2023-07-21T04:18:40.718Z,1.00
2023-07-21T04:21:08.411Z,1.00
2023-07-21T04:23:35.948Z,1.00
2023-07-21T04:26:04.700Z,1.00
2023-07-21T04:28:33.015Z,1.00
2023-07-21T04:31:00.973Z,1.00
2023-07-21T04:33:32.609Z,1.00
2023-07-21T04:36:01.171Z,1.00
2023-07-21T04:38:29.404Z,1.00
2023-07-21T04:41:07.498Z,1.00
2023-07-21T04:43:35.035Z,1.00
2023-07-21T04:46:02.343Z,1.00
2023-07-21T04:48:37.873Z,1.00
2023-07-21T04:51:05.587Z,1.00
2023-07-21T04:53:32.546Z,1.00
2023-07-21T04:55:59.551Z,1.00
2023-07-21T04:58:30.407Z,1.00
2023-07-21T05:00:57.963Z,1.00
2023-07-21T05:03:25.528Z,1.00
2023-07-21T05:05:52.635Z,1.00
2023-07-21T05:08:21.512Z,1.00
2023-07-21T05:10:49.159Z,1.00
2023-07-21T05:13:17.558Z,1.00
2023-07-21T05:15:57.591Z,1.00
2023-07-21T05:18:51.406Z,1.00
2023-07-21T05:21:37.424Z,1.00
2023-07-21T05:24:20.681Z,1.00
2023-07-21T05:26:48.523Z,1.00
2023-07-21T05:29:31.618Z,1.00
2023-07-21T05:31:58.966Z,1.00
2023-07-21T05:34:32.357Z,1.00
2023-07-21T05:37:02.823Z,1.00
2023-07-21T05:39:30.574Z,1.00
2023-07-21T05:41:59.340Z,1.00
2023-07-21T05:44:31.295Z,1.00
2023-07-21T05:46:59.287Z,99.90
2023-07-21T05:49:26.724Z,99.90
2023-07-21T05:51:54.454Z,99.90
2023-07-21T05:54:27.796Z,99.90
2023-07-21T05:56:55.594Z,99.90
2023-07-21T05:59:28.105Z,99.90
2023-07-21T06:01:59.828Z,99.90
2023-07-21T06:04:30.854Z,99.90
2023-07-21T06:07:17.871Z,99.90
2023-07-21T06:10:11.342Z,99.90
2023-07-21T06:12:50.264Z,99.90
2023-07-21T06:15:31.397Z,99.90
2023-07-21T06:18:04.059Z,99.90
2023-07-21T06:20:32.565Z,99.90
2023-07-21T06:22:59.465Z,99.90
2023-07-21T06:25:28.246Z,99.90
2023-07-21T06:28:06.639Z,99.90
2023-07-21T06:30:33.908Z,99.90
2023-07-21T06:33:00.781Z,81.50
2023-07-21T06:35:36.478Z,32.50
2023-07-21T06:38:17.697Z,18.40
2023-07-21T06:40:52.311Z,28.00
2023-07-21T06:43:44.542Z,29.70
2023-07-21T06:46:39.718Z,3.60
2023-07-21T06:49:15.718Z,1.00
2023-07-21T06:51:51.340Z,1.00
2023-07-21T06:54:18.104Z,1.00
2023-07-21T06:56:45.082Z,1.00
2023-07-21T06:59:12.236Z,1.00
2023-07-21T07:01:39.037Z,1.00
2023-07-21T07:04:06.585Z,1.00
2023-07-21T07:06:33.413Z,1.00
2023-07-21T07:09:00.177Z,1.00
2023-07-21T07:11:27.395Z,1.00
2023-07-21T07:13:55.462Z,1.00
2023-07-21T07:16:22.355Z,1.00
2023-07-21T07:18:49.179Z,1.00
2023-07-21T07:21:16.221Z,1.00
2023-07-21T07:23:42.947Z,1.00
2023-07-21T07:26:09.690Z,1.00
2023-07-21T07:28:36.676Z,1.00
2023-07-21T07:31:07.565Z,1.00
2023-07-21T07:33:34.543Z,1.00
2023-07-21T07:36:01.628Z,1.00
2023-07-21T07:38:29.952Z,1.00
2023-07-21T07:41:09.472Z,1.00
2023-07-21T07:43:37.068Z,1.00
2023-07-21T07:46:06.917Z,1.00
2023-07-21T07:48:34.843Z,1.00
2023-07-21T07:51:08.796Z,1.00
2023-07-21T07:53:36.774Z,1.00
2023-07-21T07:56:04.601Z,1.00
2023-07-21T07:58:33.268Z,1.00
2023-07-21T08:01:02.810Z,1.00
2023-07-21T08:03:31.332Z,1.00
2023-07-21T08:05:59.840Z,1.00
2023-07-21T08:08:27.665Z,1.00
2023-07-21T08:10:54.528Z,1.00
2023-07-21T08:13:22.789Z,1.00
2023-07-21T08:15:49.651Z,1.00
2023-07-21T08:18:16.410Z,1.00
2023-07-21T08:20:43.299Z,1.00
2023-07-21T08:23:23.341Z,1.00
2023-07-21T08:25:54.755Z,1.00
2023-07-21T08:28:21.728Z,1.00
2023-07-21T08:30:58.327Z,1.00
2023-07-21T08:33:27.152Z,1.00
2023-07-21T08:35:53.919Z,1.00
2023-07-21T08:38:20.814Z,1.00
2023-07-21T08:40:56.726Z,1.00
2023-07-21T08:43:23.664Z,1.00
2023-07-21T08:45:51.812Z,1.00
2023-07-21T08:48:18.978Z,1.00
2023-07-21T08:50:49.512Z,1.00
2023-07-21T08:53:16.413Z,1.00
2023-07-21T08:55:43.277Z,1.00
2023-07-21T08:58:11.306Z,1.00
2023-07-21T09:00:39.232Z,1.00
2023-07-21T09:03:06.368Z,1.00
2023-07-21T09:05:34.058Z,1.00
2023-07-21T09:08:00.902Z,1.00
2023-07-21T09:10:32.457Z,1.00
2023-07-21T09:13:00.342Z,1.00
2023-07-21T09:15:27.298Z,1.00
2023-07-21T09:17:54.202Z,1.00
2023-07-21T09:20:21.141Z,1.00
2023-07-21T09:22:51.199Z,1.00
2023-07-21T09:25:22.366Z,1.00
2023-07-21T09:27:58.967Z,1.00
2023-07-21T09:30:25.904Z,1.00
2023-07-21T09:32:56.856Z,1.00
2023-07-21T09:35:23.805Z,1.00
2023-07-21T09:37:52.315Z,1.00
2023-07-21T09:40:28.351Z,1.00
2023-07-21T09:42:56.313Z,1.00
2023-07-21T09:45:24.124Z,1.00
2023-07-21T09:47:51.638Z,1.00
2023-07-21T09:50:18.791Z,1.00
2023-07-21T09:52:48.571Z,1.00
2023-07-21T09:55:18.324Z,1.00
2023-07-21T09:57:47.136Z,1.00
2023-07-21T10:00:16.554Z,1.00
2023-07-21T10:02:50.984Z,1.00
2023-07-21T10:05:18.035Z,1.00
2023-07-21T10:07:47.534Z,1.00
2023-07-21T10:10:16.642Z,1.00
2023-07-21T10:12:48.024Z,1.00
2023-07-21T10:15:20.578Z,1.00
2023-07-21T10:17:58.014Z,1.00
2023-07-21T10:20:39.270Z,1.00
2023-07-21T10:23:06.960Z,1.00
2023-07-21T10:25:52.547Z,1.00
2023-07-21T10:28:31.466Z,1.00
2023-07-21T10:31:23.908Z,1.00
2023-07-21T10:34:17.893Z,1.00
2023-07-21T10:36:53.988Z,1.00
2023-07-21T10:39:23.359Z,1.00
2023-07-21T10:41:55.480Z,1.00
2023-07-21T10:44:23.151Z,1.00
2023-07-21T10:46:52.214Z,1.00
2023-07-21T10:49:20.414Z,1.00
2023-07-21T10:51:49.366Z,1.00
2023-07-21T10:54:17.253Z,1.00
2023-07-21T10:56:50.774Z,1.00
2023-07-21T10:59:19.721Z,1.00
2023-07-21T11:01:48.669Z,1.00
2023-07-21T11:04:16.698Z,1.00
2023-07-21T11:06:45.193Z,1.00
2023-07-21T11:09:13.249Z,1.00
2023-07-21T11:11:42.065Z,1.00
2023-07-21T11:14:17.554Z,1.00
2023-07-21T11:16:51.748Z,1.00
2023-07-21T11:19:20.482Z,1.00
2023-07-21T11:21:52.063Z,1.00
2023-07-21T11:24:20.837Z,1.00
2023-07-21T11:26:50.958Z,1.00
2023-07-21T11:29:17.892Z,1.00
2023-07-21T11:31:44.874Z,1.00
2023-07-21T11:34:19.654Z,1.00
2023-07-21T11:36:48.017Z,1.00
2023-07-21T11:39:19.796Z,1.00
2023-07-21T11:41:54.913Z,1.00
2023-07-21T11:44:33.348Z,1.00
2023-07-21T11:47:11.765Z,1.00
2023-07-21T11:49:46.318Z,1.00
2023-07-21T11:52:26.506Z,1.00
2023-07-21T11:54:55.024Z,1.00
2023-07-21T11:57:21.826Z,1.00
2023-07-21T11:59:48.988Z,1.00
2023-07-21T12:02:19.722Z,1.00
2023-07-21T12:04:46.801Z,1.00
2023-07-21T12:07:13.974Z,1.00
2023-07-21T12:09:40.714Z,1.00
2023-07-21T12:12:09.087Z,1.00
2023-07-21T12:14:36.179Z,1.00
2023-07-21T12:17:04.917Z,1.00
2023-07-21T12:19:31.755Z,1.00
2023-07-21T12:21:58.922Z,1.00
2023-07-21T12:24:25.954Z,1.00
2023-07-21T12:26:53.027Z,1.00
2023-07-21T12:29:37.846Z,1.00
2023-07-21T12:32:07.744Z,1.00
2023-07-21T12:34:35.140Z,1.00
2023-07-21T12:37:02.080Z,1.00
2023-07-21T12:39:28.968Z,1.00
2023-07-21T12:41:57.523Z,1.00
2023-07-21T12:44:24.843Z,1.00
2023-07-21T12:46:52.012Z,1.00
2023-07-21T12:49:18.845Z,1.00
2023-07-21T12:51:45.720Z,1.00
2023-07-21T12:54:12.850Z,1.00
2023-07-21T12:56:39.665Z,1.00
2023-07-21T12:59:06.580Z,1.00
2023-07-21T13:01:33.720Z,1.00
2023-07-21T13:04:00.659Z,1.00
2023-07-21T13:06:28.560Z,1.00
2023-07-21T13:08:56.182Z,1.00
2023-07-21T13:11:22.967Z,1.00
2023-07-21T13:13:52.164Z,1.00
2023-07-21T13:16:19.390Z,1.00
2023-07-21T13:18:47.808Z,1.00
2023-07-21T13:21:15.157Z,1.00
2023-07-21T13:23:41.976Z,1.00
2023-07-21T13:26:08.860Z,1.00
2023-07-21T13:28:35.656Z,1.00
2023-07-21T13:31:02.531Z,1.00
2023-07-21T13:33:29.499Z,1.00
2023-07-21T13:35:56.434Z,1.00
2023-07-21T13:38:23.986Z,1.00
2023-07-21T13:40:50.765Z,1.00
2023-07-21T13:43:17.522Z,1.00
2023-07-21T13:45:44.402Z,1.00
2023-07-21T13:48:13.833Z,1.00
2023-07-21T13:50:41.185Z,1.00
2023-07-21T13:53:07.989Z,1.00
2023-07-21T13:55:34.811Z,1.00
2023-07-21T13:58:01.725Z,1.00
2023-07-21T14:00:30.704Z,1.00
2023-07-21T14:02:57.784Z,1.00
2023-07-21T14:05:25.455Z,1.00
2023-07-21T14:07:52.617Z,1.00
2023-07-21T14:10:19.452Z,1.00
2023-07-21T14:12:47.214Z,1.00
2023-07-21T14:15:14.355Z,1.00
2023-07-21T14:17:41.456Z,1.00
2023-07-21T14:20:14.466Z,1.00
2023-07-21T14:22:41.413Z,1.00
2023-07-21T14:25:09.960Z,1.00
2023-07-21T14:27:37.168Z,1.00
2023-07-21T14:30:07.445Z,1.00
2023-07-21T14:32:34.224Z,1.00
2023-07-21T14:35:01.010Z,1.00
2023-07-21T14:37:27.749Z,1.00
2023-07-21T14:39:54.545Z,1.00
2023-07-21T14:42:21.409Z,1.00
2023-07-21T14:44:48.404Z,1.00
2023-07-21T14:47:15.152Z,1.00
2023-07-21T14:49:42.294Z,1.00
2023-07-21T14:52:11.008Z,1.00
2023-07-21T14:54:37.821Z,1.00
2023-07-21T14:57:04.903Z,1.00
2023-07-21T14:59:31.660Z,1.00
2023-07-21T15:01:59.172Z,1.00
2023-07-21T15:04:26.934Z,1.00
2023-07-21T15:06:54.115Z,1.00
2023-07-21T15:09:20.887Z,1.00
2023-07-21T15:11:47.649Z,1.00
2023-07-21T15:14:14.708Z,12.10
2023-07-21T15:16:41.546Z,1.00
2023-07-21T15:19:08.926Z,1.00
2023-07-21T15:21:35.655Z,1.00
2023-07-21T15:24:03.531Z,1.00
2023-07-21T15:26:30.375Z,1.00
2023-07-21T15:28:57.218Z,1.00
2023-07-21T15:31:24.159Z,1.00
2023-07-21T15:33:51.074Z,1.00
2023-07-21T15:36:18.333Z,1.00
2023-07-21T15:38:45.394Z,1.00
2023-07-21T15:41:12.147Z,1.00
2023-07-21T15:43:39.065Z,1.00
2023-07-21T15:46:06.052Z,1.00
2023-07-21T15:48:33.657Z,1.00
2023-07-21T15:51:00.788Z,1.00
2023-07-21T15:53:27.708Z,1.00
2023-07-21T15:55:54.509Z,1.00
2023-07-21T15:58:22.143Z,1.00
2023-07-21T16:00:59.870Z,1.00
2023-07-21T16:03:29.832Z,1.00
2023-07-21T16:05:57.698Z,1.00
2023-07-21T16:08:27.138Z,1.00
2023-07-21T16:10:54.401Z,1.00
2023-07-21T16:13:24.204Z,1.00
2023-07-21T16:15:53.179Z,1.00
2023-07-21T16:18:22.540Z,1.00
2023-07-21T16:20:49.314Z,1.00
2023-07-21T16:23:16.105Z,1.00
2023-07-21T16:25:42.895Z,1.00
2023-07-21T16:28:09.662Z,1.00
2023-07-21T16:30:40.037Z,1.00
2023-07-21T16:33:06.930Z,1.00
2023-07-21T16:35:34.052Z,1.00
2023-07-21T16:38:00.848Z,1.00
2023-07-21T16:40:28.040Z,1.00
2023-07-21T16:42:54.805Z,1.00
2023-07-21T16:45:21.677Z,1.00
2023-07-21T16:47:48.606Z,16.40
2023-07-21T16:50:15.616Z,63.40
2023-07-21T16:52:42.541Z,99.90
2023-07-21T16:55:09.812Z,99.90
2023-07-21T16:57:36.603Z,99.90
2023-07-21T17:00:11.481Z,99.90
2023-07-21T17:02:40.790Z,99.90
2023-07-21T17:05:20.489Z,99.90
2023-07-21T17:07:55.346Z,1.00
2023-07-21T17:10:22.147Z,1.00
2023-07-21T17:12:49.031Z,1.00
2023-07-21T17:15:17.012Z,1.00
2023-07-21T17:17:43.944Z,1.00
2023-07-21T17:20:13.380Z,1.00
2023-07-21T17:22:45.649Z,1.00
2023-07-21T17:25:12.449Z,1.00
2023-07-21T17:27:39.465Z,1.00
2023-07-21T17:30:07.152Z,1.00
2023-07-21T17:32:34.047Z,1.00
2023-07-21T17:35:00.852Z,1.00
2023-07-21T17:37:28.059Z,1.00
2023-07-21T17:39:55.038Z,1.00
2023-07-21T17:42:22.003Z,37.20
2023-07-21T17:44:48.813Z,69.80
2023-07-21T17:47:15.569Z,81.80
2023-07-21T17:49:42.353Z,99.90
2023-07-21T17:52:09.110Z,99.90
2023-07-21T17:54:35.925Z,99.90
2023-07-21T17:57:04.005Z,99.90
2023-07-21T17:59:30.789Z,99.90
2023-07-21T18:01:57.505Z,99.90
2023-07-21T18:04:24.278Z,99.90
2023-07-21T18:06:51.054Z,99.90
2023-07-21T18:09:17.852Z,99.90
2023-07-21T18:11:44.909Z,99.90
2023-07-21T18:14:11.757Z,99.90
2023-07-21T18:16:38.490Z,99.90
2023-07-21T18:19:05.261Z,99.90
2023-07-21T18:21:32.469Z,99.90
2023-07-21T18:23:59.244Z,99.90
2023-07-21T18:26:27.136Z,98.40
2023-07-21T18:28:54.383Z,41.00
2023-07-21T18:31:21.159Z,11.00
2023-07-21T18:33:48.454Z,7.00
2023-07-21T18:36:18.120Z,9.90
2023-07-21T18:38:46.449Z,1.00
2023-07-21T18:41:14.807Z,1.00
2023-07-21T18:43:42.446Z,1.00
2023-07-21T18:46:09.539Z,1.00
2023-07-21T18:48:36.363Z,1.00
2023-07-21T18:51:03.368Z,1.00
2023-07-21T18:53:30.109Z,1.00
2023-07-21T18:55:56.933Z,1.00
2023-07-21T18:58:23.731Z,1.00
2023-07-21T19:00:50.530Z,1.00
2023-07-21T19:03:17.473Z,1.00
2023-07-21T19:05:44.312Z,1.00
2023-07-21T19:08:11.070Z,1.00
2023-07-21T19:10:40.318Z,1.00
2023-07-21T19:13:07.136Z,1.00
2023-07-21T19:15:33.899Z,1.00
2023-07-21T19:18:00.834Z,1.00
2023-07-21T19:20:27.597Z,1.00
2023-07-21T19:22:54.406Z,1.00
2023-07-21T19:25:22.021Z,1.00
2023-07-21T19:27:48.868Z,1.00
2023-07-21T19:30:16.053Z,1.00
2023-07-21T19:32:43.642Z,1.00
2023-07-21T19:35:10.667Z,1.00
2023-07-21T19:37:38.196Z,1.00
2023-07-21T19:40:09.647Z,1.00
2023-07-21T19:42:36.958Z,1.00
2023-07-21T19:45:04.422Z,1.00
2023-07-21T19:47:31.808Z,1.00
2023-07-21T19:49:58.796Z,1.00
2023-07-21T19:52:25.863Z,1.00
2023-07-21T19:54:52.667Z,1.00
2023-07-21T19:57:20.328Z,1.00
2023-07-21T19:59:47.095Z,1.00
2023-07-21T20:02:13.965Z,1.00
2023-07-21T20:04:40.732Z,1.00
2023-07-21T20:07:07.493Z,1.00
2023-07-21T20:09:34.322Z,24.30
2023-07-21T20:12:01.120Z,39.70
2023-07-21T20:14:27.843Z,32.50
2023-07-21T20:16:54.673Z,10.30
2023-07-21T20:19:21.416Z,1.00
2023-07-21T20:21:48.157Z,1.00
2023-07-21T20:24:15.867Z,1.00
2023-07-21T20:26:42.662Z,1.00
2023-07-21T20:29:09.511Z,1.00
2023-07-21T20:31:36.321Z,1.00
2023-07-21T20:34:05.435Z,1.00
2023-07-21T20:36:32.350Z,1.00
2023-07-21T20:38:59.112Z,1.00
2023-07-21T20:41:25.864Z,1.00
2023-07-21T20:43:52.684Z,1.00
2023-07-21T20:46:19.516Z,1.00
2023-07-21T20:48:46.371Z,1.00
2023-07-21T20:51:13.347Z,1.00
2023-07-21T20:53:40.263Z,1.00
2023-07-21T20:56:07.632Z,1.00
2023-07-21T20:58:34.381Z,1.00
2023-07-21T21:01:01.362Z,1.00
2023-07-21T21:03:28.805Z,1.00
2023-07-21T21:05:59.916Z,1.00
2023-07-21T21:08:27.241Z,1.00
2023-07-21T21:10:54.448Z,1.00
2023-07-21T21:13:22.568Z,1.00
2023-07-21T21:15:49.890Z,1.00
2023-07-21T21:18:16.794Z,1.00
2023-07-21T21:20:46.010Z,1.00
2023-07-21T21:23:13.548Z,1.00
2023-07-21T21:25:40.389Z,14.20
2023-07-21T21:28:08.716Z,44.80
2023-07-21T21:30:35.836Z,80.80
2023-07-21T21:33:02.779Z,81.90
2023-07-21T21:35:29.661Z,51.30
2023-07-21T21:37:56.455Z,30.90
2023-07-21T21:40:25.040Z,1.00
2023-07-21T21:42:51.848Z,1.00
2023-07-21T21:45:18.645Z,1.00
2023-07-21T21:47:45.555Z,1.00
2023-07-21T21:50:12.389Z,1.00
2023-07-21T21:52:39.844Z,1.00
2023-07-21T21:55:07.782Z,1.00
2023-07-21T21:57:34.715Z,25.70
2023-07-21T22:00:01.494Z,42.50
2023-07-21T22:02:29.040Z,85.60
2023-07-21T22:04:55.869Z,99.90
2023-07-21T22:07:22.642Z,99.90
2023-07-21T22:09:49.391Z,99.90
2023-07-21T22:12:16.241Z,99.90
2023-07-21T22:14:55.299Z,99.90
2023-07-21T22:17:23.450Z,99.90
2023-07-21T22:20:03.717Z,99.90
2023-07-21T22:22:36.285Z,99.90
2023-07-21T22:25:03.753Z,99.90
2023-07-21T22:27:30.486Z,99.90
2023-07-21T22:29:57.278Z,99.90
2023-07-21T22:32:24.271Z,99.90
2023-07-21T22:34:51.217Z,99.90
2023-07-21T22:37:18.016Z,99.90
2023-07-21T22:39:44.755Z,99.90
2023-07-21T22:42:11.560Z,99.90
2023-07-21T22:44:38.395Z,99.90
2023-07-21T22:47:05.325Z,99.90
2023-07-21T22:49:32.106Z,99.90
2023-07-21T22:51:58.883Z,99.90
2023-07-21T22:54:25.698Z,99.90
2023-07-21T22:56:52.473Z,99.90
2023-07-21T22:59:19.263Z,99.90
2023-07-21T23:01:46.111Z,99.90
2023-07-21T23:04:12.987Z,99.90
2023-07-21T23:06:40.814Z,99.90
2023-07-21T23:09:08.878Z,99.90
2023-07-21T23:11:35.705Z,99.90
2023-07-21T23:14:02.452Z,99.90
2023-07-21T23:16:29.885Z,99.90
2023-07-21T23:18:56.967Z,99.90
2023-07-21T23:21:23.841Z,99.90
2023-07-21T23:23:50.643Z,99.90
2023-07-21T23:26:17.365Z,99.90
2023-07-21T23:28:44.087Z,99.90
2023-07-21T23:31:10.924Z,99.90
2023-07-21T23:33:37.736Z,99.90
2023-07-21T23:36:04.761Z,99.90
2023-07-21T23:38:32.259Z,99.90
2023-07-21T23:40:59.202Z,99.90
2023-07-21T23:43:26.701Z,99.90
2023-07-21T23:45:59.043Z,99.90
2023-07-21T23:48:26.912Z,99.90
2023-07-21T23:50:53.771Z,99.90
2023-07-21T23:53:20.532Z,99.90
2023-07-21T23:55:47.373Z,99.90
2023-07-21T23:58:14.375Z,99.90
